Time;durP1;ratioP1;P1;durP2;ratioP2;P2;SDS_P1;SDS_P2;PMS_P1;PMS_P2;Temp;Humidity;BMP_temperature;BMP_pressure;BME280_temperature;BME280_humidity;BME280_pressure;Samples;Min_cycle;Max_cycle;Signal;HPM_P1;HPM_P2
2021/07/18 00:00:33;;;;;;;14.98;9.90;;;17.60;99.90;;;;;;6333405;22;20480;-82
2021/07/18 00:03:01;;;;;;;18.52;10.23;;;17.60;99.90;;;;;;6341549;22;20018;-82
2021/07/18 00:05:29;;;;;;;18.08;10.80;;;17.60;99.90;;;;;;6318645;22;20373;-82
2021/07/18 00:08:05;;;;;;;14.30;11.05;;;17.60;99.90;;;;;;6337397;22;20513;-82
2021/07/18 00:10:33;;;;;;;12.45;9.40;;;17.60;99.90;;;;;;6342746;22;20030;-82
2021/07/18 00:13:01;;;;;;;13.40;9.40;;;17.60;99.90;;;;;;6345837;22;20014;-83
2021/07/18 00:15:29;;;;;;;14.68;9.25;;;17.60;99.90;;;;;;6311515;22;20033;-84
2021/07/18 00:17:57;;;;;;;11.88;9.23;;;17.60;99.90;;;;;;6346054;22;20006;-83
2021/07/18 00:20:24;;;;;;;15.43;10.93;;;17.60;99.90;;;;;;6335091;22;20015;-83
2021/07/18 00:22:54;;;;;;;13.25;8.65;;;17.60;99.90;;;;;;6334335;22;20019;-82
2021/07/18 00:25:22;;;;;;;20.67;10.65;;;17.50;99.90;;;;;;6345726;22;20322;-82
2021/07/18 00:27:50;;;;;;;13.48;10.75;;;17.50;99.90;;;;;;6338090;22;20029;-82
2021/07/18 00:30:17;;;;;;;15.82;11.45;;;17.50;99.90;;;;;;6315894;22;20014;-83
2021/07/18 00:32:45;;;;;;;14.45;9.07;;;17.50;99.90;;;;;;6318235;22;20011;-82
2021/07/18 00:35:13;;;;;;;15.40;8.57;;;17.40;99.90;;;;;;6337150;22;20023;-82
2021/07/18 00:37:40;;;;;;;16.40;8.95;;;17.40;99.90;;;;;;6345653;22;20014;-83
2021/07/18 00:40:09;;;;;;;15.77;11.13;;;17.40;99.90;;;;;;6336088;22;20481;-82
2021/07/18 00:42:37;;;;;;;13.95;9.70;;;17.40;99.90;;;;;;6315536;22;20476;-82
2021/07/18 00:45:07;;;;;;;14.70;9.88;;;17.40;99.90;;;;;;6344707;22;20426;-82
2021/07/18 00:47:37;;;;;;;13.60;9.90;;;17.40;99.90;;;;;;6306362;22;20026;-82
2021/07/18 00:50:08;;;;;;;17.35;8.10;;;17.30;99.90;;;;;;6345001;22;20018;-82
2021/07/18 00:52:39;;;;;;;11.07;9.48;;;17.30;99.90;;;;;;6334179;22;20022;-82
2021/07/18 00:55:12;;;;;;;13.65;8.93;;;17.30;99.90;;;;;;6340585;22;20030;-82
2021/07/18 00:57:44;;;;;;;15.07;8.35;;;17.30;99.90;;;;;;6345706;22;20014;-83
2021/07/18 01:00:13;;;;;;;13.60;8.90;;;17.30;99.90;;;;;;6304805;22;20022;-81
2021/07/18 01:02:42;;;;;;;14.80;9.70;;;17.30;99.90;;;;;;6341988;22;20704;-82
2021/07/18 01:05:12;;;;;;;14.00;8.90;;;17.20;99.90;;;;;;6307757;22;20425;-81
2021/07/18 01:07:39;;;;;;;15.52;8.50;;;17.20;99.90;;;;;;6338087;22;20381;-82
2021/07/18 01:10:09;;;;;;;12.63;9.02;;;17.20;99.90;;;;;;6316805;22;20011;-82
2021/07/18 01:12:37;;;;;;;14.20;9.75;;;17.20;99.90;;;;;;6318221;22;20017;-83
2021/07/18 01:15:20;;;;;;;11.63;8.65;;;17.20;99.90;;;;;;6339361;22;20023;-82
2021/07/18 01:17:48;;;;;;;17.67;9.45;;;17.20;99.90;;;;;;6318471;22;20015;-83
2021/07/18 01:20:15;;;;;;;11.60;8.68;;;17.20;99.90;;;;;;6335703;22;20023;-81
2021/07/18 01:22:44;;;;;;;14.35;10.48;;;17.20;99.90;;;;;;6255438;22;20022;-82
2021/07/18 01:25:12;;;;;;;15.80;9.15;;;17.20;99.90;;;;;;6345342;22;20015;-83
2021/07/18 01:27:41;;;;;;;13.68;10.32;;;17.20;99.90;;;;;;6338066;22;20026;-81
2021/07/18 01:30:12;;;;;;;12.75;10.00;;;17.10;99.90;;;;;;6343104;22;20044;-82
2021/07/18 01:32:42;;;;;;;15.38;12.38;;;17.10;99.90;;;;;;6345698;22;20446;-81
2021/07/18 01:35:11;;;;;;;14.52;7.97;;;17.10;99.90;;;;;;6337037;22;20015;-83
2021/07/18 01:37:40;;;;;;;15.05;9.68;;;17.10;99.90;;;;;;6345353;22;20011;-83
2021/07/18 01:40:11;;;;;;;10.15;8.43;;;17.20;99.90;;;;;;6335098;22;20027;-82
2021/07/18 01:42:44;;;;;;;9.95;8.82;;;17.10;99.90;;;;;;6306730;22;20010;-82
2021/07/18 01:45:12;;;;;;;12.05;9.50;;;17.10;99.90;;;;;;6344888;22;20010;-82
2021/07/18 01:47:41;;;;;;;11.77;7.53;;;17.10;99.90;;;;;;6338196;22;20445;-83
2021/07/18 01:50:09;;;;;;;12.27;8.52;;;17.10;99.90;;;;;;6344533;22;20007;-83
2021/07/18 01:52:37;;;;;;;16.23;9.20;;;17.10;99.90;;;;;;6345032;22;20017;-83
2021/07/18 01:55:05;;;;;;;12.55;7.93;;;17.00;99.90;;;;;;6340537;22;20018;-82
2021/07/18 01:57:33;;;;;;;11.02;7.75;;;17.00;99.90;;;;;;6280518;22;20362;-83
2021/07/18 02:00:01;;;;;;;10.90;8.50;;;17.00;99.90;;;;;;6335321;22;20027;-82
2021/07/18 02:02:45;;;;;;;12.43;9.50;;;16.90;99.90;;;;;;6343015;22;20019;-82
2021/07/18 02:05:14;;;;;;;10.43;8.40;;;16.90;99.90;;;;;;6318487;22;20019;-82
2021/07/18 02:07:43;;;;;;;12.93;7.95;;;16.90;99.90;;;;;;6338546;22;20019;-81
2021/07/18 02:10:12;;;;;;;10.75;7.78;;;16.80;99.90;;;;;;6344570;22;20453;-82
2021/07/18 02:12:46;;;;;;;;;;;16.80;99.90;;;;;;6347393;22;20442;-83
2021/07/18 02:15:17;;;;;;;14.27;6.93;;;16.80;99.90;;;;;;6341936;22;19923;-83
2021/07/18 02:17:45;;;;;;;15.35;7.30;;;16.80;99.90;;;;;;6348098;22;20022;-83
2021/07/18 02:20:16;;;;;;;12.68;7.60;;;16.80;99.90;;;;;;6338066;22;20015;-84
2021/07/18 02:22:50;;;;;;;14.65;7.82;;;16.80;99.90;;;;;;6317265;22;20018;-82
2021/07/18 02:25:21;;;;;;;16.25;8.10;;;16.80;99.90;;;;;;6347867;22;20015;-79
2021/07/18 02:27:51;;;;;;;11.18;8.25;;;16.80;99.90;;;;;;6312411;22;20026;-82
2021/07/18 02:30:26;;;;;;;12.25;8.43;;;16.80;99.90;;;;;;6335140;22;20014;-81
2021/07/18 02:32:55;;;;;;;9.65;7.47;;;16.80;99.90;;;;;;6347346;22;20015;-81
2021/07/18 02:35:23;;;;;;;10.40;7.38;;;16.80;99.90;;;;;;6336484;22;20345;-81
2021/07/18 02:37:52;;;;;;;9.85;6.53;;;16.70;99.90;;;;;;6347643;22;20484;-81
2021/07/18 02:40:21;;;;;;;12.73;8.07;;;16.80;99.90;;;;;;6336578;22;20015;-81
2021/07/18 02:42:50;;;;;;;14.05;7.38;;;16.70;99.90;;;;;;6344031;22;20026;-82
2021/07/18 02:45:21;;;;;;;11.73;6.72;;;16.70;99.90;;;;;;6337157;22;20022;-82
2021/07/18 02:47:50;;;;;;;11.98;6.35;;;16.70;99.90;;;;;;6308369;22;20022;-82
2021/07/18 02:50:30;;;;;;;15.00;8.88;;;16.70;99.90;;;;;;6279713;22;20011;-84
2021/07/18 02:53:15;;;;;;;15.70;7.22;;;16.70;99.90;;;;;;6336648;22;20029;-82
2021/07/18 02:55:43;;;;;;;11.85;7.35;;;16.70;99.90;;;;;;6340166;22;20480;-81
2021/07/18 02:58:11;;;;;;;8.38;6.85;;;16.70;99.90;;;;;;6345707;22;20030;-81
2021/07/18 03:00:38;;;;;;;10.98;8.05;;;16.70;99.90;;;;;;6346026;22;20014;-82
2021/07/18 03:03:07;;;;;;;9.40;6.38;;;16.70;99.90;;;;;;6342639;22;20014;-82
2021/07/18 03:05:36;;;;;;;9.63;6.65;;;16.70;99.90;;;;;;6347639;22;20019;-83
2021/07/18 03:08:04;;;;;;;7.45;5.15;;;16.70;99.90;;;;;;6338654;22;20015;-82
2021/07/18 03:10:32;;;;;;;10.45;6.10;;;16.70;99.90;;;;;;6336080;22;20333;-82
2021/07/18 03:13:00;;;;;;;8.32;5.78;;;16.70;99.90;;;;;;6347352;22;20010;-82
2021/07/18 03:15:30;;;;;;;8.90;6.47;;;16.70;99.90;;;;;;6340047;22;20019;-83
2021/07/18 03:18:06;;;;;;;13.10;5.35;;;16.60;99.90;;;;;;6336198;22;20018;-82
2021/07/18 03:20:35;;;;;;;9.13;5.93;;;16.60;99.90;;;;;;6307686;22;20023;-81
2021/07/18 03:23:03;;;;;;;24.45;7.90;;;16.60;99.90;;;;;;6307592;22;20021;-81
2021/07/18 03:25:31;;;;;;;6.85;4.82;;;16.60;99.90;;;;;;6346507;22;20065;-82
2021/07/18 03:27:59;;;;;;;5.75;4.45;;;16.50;99.90;;;;;;6338019;22;20015;-81
2021/07/18 03:30:26;;;;;;;7.90;4.75;;;16.50;99.90;;;;;;6343187;22;20011;-83
2021/07/18 03:32:54;;;;;;;9.45;5.55;;;16.50;99.90;;;;;;6346628;22;20019;-82
2021/07/18 03:35:22;;;;;;;9.55;3.75;;;16.50;99.90;;;;;;6337425;22;20031;-82
2021/07/18 03:37:50;;;;;;;5.82;3.88;;;16.40;99.90;;;;;;6308027;22;20026;-81
2021/07/18 03:40:19;;;;;;;11.82;6.32;;;16.40;99.90;;;;;;6308574;22;20026;-83
2021/07/18 03:42:46;;;;;;;7.90;4.82;;;16.40;99.90;;;;;;6342177;22;20026;-81
2021/07/18 03:45:15;;;;;;;12.65;4.60;;;16.40;99.90;;;;;;6345645;22;20023;-83
2021/07/18 03:47:46;;;;;;;5.78;4.40;;;16.40;99.90;;;;;;6311490;22;20019;-83
2021/07/18 03:50:18;;;;;;;7.65;4.15;;;16.40;99.90;;;;;;6281028;22;20023;-81
2021/07/18 03:52:47;;;;;;;8.80;4.57;;;16.30;99.90;;;;;;6319301;22;20017;-82
2021/07/18 03:55:16;;;;;;;10.35;5.65;;;16.30;99.90;;;;;;6313901;22;20453;-80
2021/07/18 03:57:44;;;;;;;11.85;4.05;;;16.30;99.90;;;;;;6347272;22;20592;-82
2021/07/18 04:00:13;;;;;;;8.35;3.60;;;16.30;99.90;;;;;;6336195;22;20030;-83
2021/07/18 04:02:40;;;;;;;6.35;3.75;;;16.20;99.90;;;;;;6343873;22;20342;-82
2021/07/18 04:05:09;;;;;;;11.98;3.45;;;16.20;99.90;;;;;;6347024;22;20014;-81
2021/07/18 04:07:38;;;;;;;8.48;4.93;;;16.20;99.90;;;;;;6339938;22;20025;-82
2021/07/18 04:10:09;;;;;;;4.53;3.47;;;16.20;99.90;;;;;;6345581;22;20014;-82
2021/07/18 04:12:42;;;;;;;15.00;4.45;;;16.20;99.90;;;;;;6310006;22;20010;-81
2021/07/18 04:15:12;;;;;;;6.70;4.65;;;16.20;99.90;;;;;;6335322;22;20373;-81
2021/07/18 04:17:40;;;;;;;15.45;3.97;;;16.20;99.90;;;;;;6308154;22;20026;-81
2021/07/18 04:20:09;;;;;;;10.93;3.33;;;16.10;99.90;;;;;;6336941;22;20030;-81
2021/07/18 04:22:36;;;;;;;8.50;4.25;;;16.10;99.90;;;;;;6343853;22;20462;-81
2021/07/18 04:25:05;;;;;;;9.82;4.75;;;16.10;99.90;;;;;;6346847;22;20015;-80
2021/07/18 04:27:33;;;;;;;5.68;4.00;;;16.10;99.90;;;;;;6340457;22;20030;-81
2021/07/18 04:30:03;;;;;;;8.23;3.67;;;16.00;99.90;;;;;;6345933;22;20017;-82
2021/07/18 04:32:31;;;;;;;6.07;3.83;;;16.00;99.90;;;;;;6282336;22;20038;-82
2021/07/18 04:34:59;;;;;;;5.15;4.15;;;15.90;99.90;;;;;;6338352;22;20018;-83
2021/07/18 04:37:28;;;;;;;5.10;3.65;;;15.90;99.90;;;;;;6335841;22;20011;-81
2021/07/18 04:39:55;;;;;;;5.05;3.30;;;15.90;99.90;;;;;;6337800;22;20023;-87
2021/07/18 04:42:23;;;;;;;6.90;3.90;;;15.90;99.90;;;;;;6306739;22;20018;-86
2021/07/18 04:44:51;;;;;;;14.05;3.80;;;15.90;99.90;;;;;;6318634;22;20007;-86
2021/07/18 04:47:18;;;;;;;8.00;3.42;;;15.90;99.90;;;;;;6340780;22;20019;-85
2021/07/18 04:49:46;;;;;;;9.65;5.05;;;15.90;99.90;;;;;;6346757;22;20014;-86
2021/07/18 04:52:13;;;;;;;6.85;3.90;;;15.80;99.90;;;;;;6336710;22;20041;-86
2021/07/18 04:54:41;;;;;;;5.40;3.42;;;15.80;99.90;;;;;;6315810;22;20025;-85
2021/07/18 04:57:09;;;;;;;4.25;3.08;;;15.80;99.90;;;;;;6282442;22;20025;-86
2021/07/18 04:59:38;;;;;;;7.65;3.33;;;15.80;99.90;;;;;;6306860;22;20034;-86
2021/07/18 05:02:05;;;;;;;6.57;4.78;;;15.80;99.90;;;;;;6318402;22;20014;-85
2021/07/18 05:04:34;;;;;;;7.13;3.88;;;15.80;99.90;;;;;;6281476;22;20014;-85
2021/07/18 05:07:07;;;;;;;7.28;4.75;;;15.80;99.90;;;;;;6282523;22;20029;-85
2021/07/18 05:09:40;;;;;;;6.68;4.03;;;15.90;99.90;;;;;;6308666;22;20014;-85
2021/07/18 05:12:08;;;;;;;9.10;4.00;;;15.80;99.90;;;;;;6281515;22;20023;-85
2021/07/18 05:14:37;;;;;;;3.70;3.33;;;15.90;99.90;;;;;;6280081;22;20346;-86
2021/07/18 05:17:05;;;;;;;5.22;3.17;;;15.80;99.90;;;;;;6257072;22;20015;-86
2021/07/18 05:19:32;;;;;;;5.00;2.88;;;15.80;99.90;;;;;;6339978;22;20469;-85
2021/07/18 05:22:00;;;;;;;7.38;3.88;;;15.80;99.90;;;;;;6319079;22;20014;-86
2021/07/18 05:24:29;;;;;;;7.63;3.35;;;15.80;99.90;;;;;;6281128;22;20346;-86
2021/07/18 05:26:56;;;;;;;7.30;3.97;;;15.80;99.90;;;;;;6341999;22;20350;-85
2021/07/18 05:29:24;;;;;;;8.88;3.78;;;15.80;99.90;;;;;;6317845;22;20007;-86
2021/07/18 05:31:52;;;;;;;5.47;3.63;;;15.80;99.90;;;;;;6310162;22;20049;-84
2021/07/18 05:34:21;;;;;;;6.32;2.95;;;15.80;99.90;;;;;;6281261;22;20457;-85
2021/07/18 05:36:48;;;;;;;4.18;2.70;;;15.90;99.90;;;;;;6318939;22;20434;-84
2021/07/18 05:39:16;;;;;;;4.25;3.08;;;15.90;99.90;;;;;;6280963;22;20031;-86
2021/07/18 05:41:44;;;;;;;5.13;4.20;;;15.90;99.90;;;;;;6280227;22;20338;-84
2021/07/18 05:44:12;;;;;;;3.95;2.95;;;15.90;99.90;;;;;;6308012;22;20027;-85
2021/07/18 05:46:39;;;;;;;8.60;4.72;;;16.00;99.90;;;;;;6256137;22;20019;-85
2021/07/18 05:49:07;;;;;;;7.32;3.33;;;15.90;99.90;;;;;;6258890;22;20018;-86
2021/07/18 05:51:35;;;;;;;11.65;2.90;;;15.90;99.90;;;;;;6256902;22;20030;-86
2021/07/18 05:54:09;;;;;;;3.63;3.15;;;15.90;99.90;;;;;;6282112;22;20025;-86
2021/07/18 05:56:38;;;;;;;10.10;3.30;;;15.90;99.90;;;;;;6308870;22;20015;-85
2021/07/18 05:59:14;;;;;;;4.93;3.30;;;15.90;99.90;;;;;;6313586;22;20038;-85
2021/07/18 06:01:42;;;;;;;4.15;3.15;;;15.90;99.90;;;;;;6320397;22;20022;-85
2021/07/18 06:04:10;;;;;;;5.32;3.58;;;15.90;99.90;;;;;;6338172;22;20019;-83
2021/07/18 06:06:38;;;;;;;6.60;4.20;;;16.10;99.90;;;;;;6344624;22;20026;-84
2021/07/18 06:09:08;;;;;;;5.18;3.35;;;16.10;99.90;;;;;;6347978;22;20469;-84
2021/07/18 06:11:36;;;;;;;5.73;3.43;;;16.40;99.90;;;;;;6340208;22;20030;-84
2021/07/18 06:14:04;;;;;;;22.52;4.38;;;16.50;99.90;;;;;;6320012;22;20731;-83
2021/07/18 06:16:31;;;;;;;21.60;3.58;;;16.60;99.90;;;;;;6335988;22;20019;-84
2021/07/18 06:18:59;;;;;;;6.97;3.55;;;16.50;99.90;;;;;;6342528;22;20033;-85
2021/07/18 06:21:27;;;;;;;7.85;3.28;;;16.50;99.90;;;;;;6347549;22;20007;-84
2021/07/18 06:23:55;;;;;;;4.47;2.58;;;16.40;99.90;;;;;;6270133;22;20034;-84
2021/07/18 06:26:25;;;;;;;4.32;2.97;;;16.20;99.90;;;;;;6343786;22;20019;-85
2021/07/18 06:29:00;;;;;;;8.70;5.43;;;16.10;99.90;;;;;;6283506;22;20018;-84
2021/07/18 06:31:28;;;;;;;5.60;4.35;;;16.10;99.90;;;;;;6282286;22;20026;-85
2021/07/18 06:33:56;;;;;;;3.33;2.90;;;16.10;99.90;;;;;;6291703;22;20334;-85
2021/07/18 06:36:24;;;;;;;6.55;3.72;;;16.10;99.90;;;;;;6307868;22;20026;-84
2021/07/18 06:38:52;;;;;;;5.53;3.10;;;16.10;99.90;;;;;;6290296;22;20472;-84
2021/07/18 06:41:20;;;;;;;6.32;3.10;;;16.10;99.90;;;;;;6347471;22;20333;-84
2021/07/18 06:43:47;;;;;;;8.90;4.55;;;16.10;99.90;;;;;;6311771;22;20026;-83
2021/07/18 06:46:31;;;;;;;4.90;2.85;;;16.00;99.90;;;;;;6318032;22;20434;-86
2021/07/18 06:48:59;;;;;;;5.53;3.53;;;16.00;99.90;;;;;;6347582;22;20033;-84
2021/07/18 06:51:27;;;;;;;3.80;3.38;;;16.00;99.90;;;;;;6336634;22;20045;-84
2021/07/18 06:53:55;;;;;;;6.00;3.97;;;16.00;99.90;;;;;;6315712;22;20535;-84
2021/07/18 06:56:31;;;;;;;7.22;3.50;;;15.90;99.90;;;;;;6335862;22;20019;-84
2021/07/18 06:59:00;;;;;;;9.63;3.22;;;15.90;99.90;;;;;;6281072;22;20021;-83
2021/07/18 07:01:29;;;;;;;9.85;4.00;;;15.90;99.90;;;;;;6320182;22;20011;-84
2021/07/18 07:03:57;;;;;;;10.50;4.28;;;15.80;99.90;;;;;;6338891;22;20011;-83
2021/07/18 07:06:25;;;;;;;6.18;3.55;;;15.80;99.90;;;;;;6340866;22;20021;-83
2021/07/18 07:08:53;;;;;;;10.77;4.32;;;15.90;99.90;;;;;;6347424;22;20041;-83
2021/07/18 07:11:21;;;;;;;5.13;3.25;;;15.80;99.90;;;;;;6281574;22;20019;-86
2021/07/18 07:13:50;;;;;;;7.57;3.55;;;15.80;99.90;;;;;;6293979;22;20022;-82
2021/07/18 07:16:20;;;;;;;8.18;2.92;;;15.80;99.90;;;;;;6335953;22;20019;-83
2021/07/18 07:18:47;;;;;;;4.40;2.85;;;15.80;99.90;;;;;;6307587;22;20018;-84
2021/07/18 07:21:15;;;;;;;9.80;4.10;;;15.80;99.90;;;;;;6319282;22;20015;-84
2021/07/18 07:23:43;;;;;;;6.32;3.10;;;15.80;99.90;;;;;;6334750;22;20019;-83
2021/07/18 07:26:11;;;;;;;11.90;2.80;;;15.90;99.90;;;;;;6317787;22;20018;-83
2021/07/18 07:28:39;;;;;;;8.52;3.78;;;15.90;99.90;;;;;;6346403;22;20014;-83
2021/07/18 07:31:06;;;;;;;6.75;3.75;;;15.90;99.90;;;;;;6313069;22;20022;-85
2021/07/18 07:33:35;;;;;;;8.52;3.30;;;15.90;99.90;;;;;;6345551;22;20021;-85
2021/07/18 07:36:05;;;;;;;7.05;3.63;;;16.00;99.90;;;;;;6310018;22;20054;-87
2021/07/18 07:38:33;;;;;;;8.95;3.53;;;16.00;99.90;;;;;;6316387;22;20034;-87
2021/07/18 07:41:01;;;;;;;4.15;3.70;;;16.10;99.90;;;;;;6346157;22;20010;-86
2021/07/18 07:43:29;;;;;;;10.18;5.40;;;16.30;99.90;;;;;;6311442;22;20027;-85
2021/07/18 07:45:59;;;;;;;5.22;4.15;;;16.40;99.90;;;;;;6282013;22;20018;-83
2021/07/18 07:48:34;;;;;;;8.38;4.88;;;16.60;99.90;;;;;;6257925;22;20016;-83
2021/07/18 07:51:04;;;;;;;4.85;3.55;;;16.70;99.90;;;;;;6307950;22;20018;-88
2021/07/18 07:53:32;;;;;;;4.18;3.38;;;16.70;99.90;;;;;;6257707;22;20022;-86
2021/07/18 07:56:00;;;;;;;9.18;3.83;;;16.70;99.90;;;;;;6256998;22;20027;-87
2021/07/18 07:58:29;;;;;;;9.15;3.58;;;16.70;99.90;;;;;;6256749;22;20019;-87
2021/07/18 08:00:56;;;;;;;7.85;4.75;;;16.70;99.90;;;;;;6256169;22;20022;-87
2021/07/18 08:03:26;;;;;;;8.35;3.65;;;16.80;99.90;;;;;;6281799;22;20030;-84
2021/07/18 08:06:03;;;;;;;5.40;4.47;;;16.90;99.90;;;;;;6307476;22;20015;-85
2021/07/18 08:08:31;;;;;;;9.43;4.80;;;16.90;99.90;;;;;;6256878;22;20030;-83
2021/07/18 08:11:09;;;;;;;4.53;4.13;;;16.90;99.90;;;;;;6313681;22;20046;-82
2021/07/18 08:13:50;;;;;;;6.10;3.65;;;16.80;99.90;;;;;;6282984;22;20014;-86
2021/07/18 08:17:08;;;;;;;6.30;3.95;;;16.80;99.90;;;;;;6276375;22;20068;-87
2021/07/18 08:19:38;;;;;;;5.65;3.42;;;16.70;99.90;;;;;;6307492;22;20019;-86
2021/07/18 08:22:06;;;;;;;5.32;4.15;;;16.70;99.90;;;;;;6306961;22;20026;-85
2021/07/18 08:24:45;;;;;;;6.55;3.78;;;16.60;99.90;;;;;;6319350;22;20549;-85
2021/07/18 08:27:18;;;;;;;5.65;4.10;;;16.60;99.90;;;;;;6281431;22;20027;-88
2021/07/18 08:31:17;;;;;;;6.90;4.03;;;16.60;99.90;;;;;;6340495;22;20014;-88
2021/07/18 08:34:23;;;;;;;7.07;3.83;;;16.60;99.90;;;;;;6335743;22;20027;-85
2021/07/18 08:36:57;;;;;;;9.75;3.80;;;16.60;99.90;;;;;;6266191;22;20027;-86
2021/07/18 08:39:33;;;;;;;6.47;4.82;;;16.60;99.90;;;;;;6312791;22;20567;-86
2021/07/18 08:42:11;;;;;;;6.85;6.15;;;16.60;99.90;;;;;;6256940;22;20014;-85
2021/07/18 08:44:59;;;;;;;11.23;4.25;;;16.80;99.90;;;;;;6280837;22;20032;-86
2021/07/18 08:47:37;;;;;;;7.82;4.15;;;16.80;99.90;;;;;;6319163;22;20019;-87
2021/07/18 08:50:11;;;;;;;8.85;4.32;;;16.90;99.90;;;;;;6259176;22;20014;-86
2021/07/18 08:52:55;;;;;;;9.68;4.47;;;17.00;99.90;;;;;;6292717;22;20019;-82
2021/07/18 08:55:48;;;;;;;6.60;3.97;;;17.00;99.90;;;;;;6252337;22;20023;-84
2021/07/18 08:58:26;;;;;;;6.05;4.82;;;17.10;99.90;;;;;;6281938;22;20010;-83
2021/07/18 09:05:00;;;;;;;14.80;5.32;;;17.00;99.90;;;;;;6319990;22;20027;-84
2021/07/18 09:08:00;;;;;;;20.27;6.97;;;17.00;99.90;;;;;;6272636;22;20023;-84
2021/07/18 09:10:36;;;;;;;8.80;4.80;;;17.10;99.90;;;;;;6264348;22;20033;-83
2021/07/18 09:13:10;;;;;;;8.52;5.15;;;17.10;99.90;;;;;;6318552;22;20018;-84
2021/07/18 09:15:53;;;;;;;8.57;6.13;;;17.10;99.90;;;;;;6277069;22;20019;-83
2021/07/18 09:18:25;;;;;;;10.52;6.32;;;17.20;99.90;;;;;;6316243;22;20018;-83
2021/07/18 09:20:59;;;;;;;14.35;5.70;;;17.20;99.90;;;;;;6279827;22;20014;-86
2021/07/18 09:23:34;;;;;;;10.30;5.50;;;17.30;99.90;;;;;;6307245;22;20030;-84
2021/07/18 09:26:22;;;;;;;8.00;6.65;;;17.40;99.90;;;;;;6346324;22;20007;-83
2021/07/18 09:28:51;;;;;;;8.50;6.28;;;17.40;99.90;;;;;;6318410;22;20334;-83
2021/07/18 09:31:38;;;;;;;7.35;6.57;;;17.40;99.90;;;;;;6338208;22;20023;-83
2021/07/18 09:34:18;;;;;;;13.95;6.95;;;17.60;99.90;;;;;;6342963;22;20381;-82
2021/07/18 09:36:49;;;;;;;10.57;6.00;;;17.60;99.90;;;;;;6346287;22;20015;-84
2021/07/18 09:39:18;;;;;;;7.97;6.67;;;17.70;99.90;;;;;;6333625;22;20030;-84
2021/07/18 09:41:57;;;;;;;11.27;7.28;;;17.70;99.90;;;;;;6335547;22;20245;-83
2021/07/18 09:44:48;;;;;;;16.45;8.23;;;17.60;99.90;;;;;;6286625;22;20022;-84
2021/07/18 09:47:19;;;;;;;16.08;7.57;;;17.60;99.90;;;;;;6312909;22;20102;-83
2021/07/18 09:49:54;;;;;;;13.55;8.18;;;17.60;99.90;;;;;;6346391;22;20319;-82
2021/07/18 09:52:26;;;;;;;11.85;8.80;;;17.70;99.90;;;;;;6336091;22;20030;-82
2021/07/18 09:54:57;;;;;;;11.38;9.07;;;17.70;99.90;;;;;;6341822;22;20029;-83
2021/07/18 09:57:44;;;;;;;;;;;17.80;99.90;;;;;;6347131;22;20015;-84
2021/07/18 10:00:13;;;;;;;12.38;7.60;;;17.80;99.90;;;;;;6273462;22;19919;-84
2021/07/18 10:03:31;;;;;;;8.13;6.35;;;17.80;99.90;;;;;;6136419;22;20033;-82
2021/07/18 10:06:13;;;;;;;10.77;7.35;;;17.80;99.90;;;;;;6270962;22;20039;-83
2021/07/18 10:08:50;;;;;;;11.98;7.25;;;17.90;99.90;;;;;;6230099;22;20019;-83
2021/07/18 10:11:28;;;;;;;8.57;6.90;;;17.80;99.90;;;;;;6244278;22;20020;-85
2021/07/18 10:13:57;;;;;;;15.35;11.02;;;17.90;99.90;;;;;;6254707;22;20026;-83
2021/07/18 10:16:27;;;;;;;12.75;8.35;;;17.80;99.90;;;;;;6270209;22;20486;-83
2021/07/18 10:18:56;;;;;;;11.80;7.22;;;17.90;99.90;;;;;;6243501;22;20020;-83
2021/07/18 10:21:36;;;;;;;11.05;7.47;;;17.80;99.90;;;;;;6244205;22;20016;-84
2021/07/18 10:24:18;;;;;;;15.57;9.90;;;17.90;99.90;;;;;;6270962;22;20020;-83
2021/07/18 10:27:06;;;;;;;12.23;7.32;;;18.00;99.90;;;;;;6269438;22;20019;-83
2021/07/18 10:29:52;;;;;;;11.10;9.32;;;17.90;99.90;;;;;;6280578;22;20016;-83
2021/07/18 10:32:40;;;;;;;11.52;8.13;;;18.00;99.90;;;;;;6300956;22;20022;-83
2021/07/18 10:35:25;;;;;;;11.02;7.95;;;18.00;99.90;;;;;;6339053;22;20015;-83
2021/07/18 10:37:54;;;;;;;13.27;8.70;;;18.10;99.90;;;;;;6347823;22;20015;-83
2021/07/18 10:40:32;;;;;;;20.55;11.68;;;18.10;99.90;;;;;;6330963;22;20045;-83
2021/07/18 10:43:36;;;;;;;16.15;8.75;;;18.20;99.90;;;;;;6311496;22;20023;-83
2021/07/18 10:46:07;;;;;;;10.45;7.30;;;18.40;99.90;;;;;;6346666;22;20322;-84
2021/07/18 10:49:00;;;;;;;18.23;8.70;;;18.40;99.90;;;;;;6319529;22;20022;-84
2021/07/18 10:51:41;;;;;;;11.23;8.23;;;18.50;99.90;;;;;;6322911;22;20019;-84
2021/07/18 10:55:13;;;;;;;14.25;8.95;;;18.50;99.90;;;;;;6303060;22;20019;-82
2021/07/18 10:58:45;;;;;;;20.35;7.90;;;18.70;99.90;;;;;;6336367;22;20015;-84
2021/07/18 11:07:44;;;;;;;16.85;9.90;;;19.10;99.90;;;;;;6274714;22;20026;-85
2021/07/18 11:12:14;;;;;;;16.85;8.70;;;19.30;99.90;;;;;;6208905;23;20049;-85
2021/07/18 11:14:56;;;;;;;10.98;7.95;;;19.20;99.90;;;;;;6155964;23;20400;-86
2021/07/18 11:18:22;;;;;;;13.73;8.43;;;19.10;99.90;;;;;;6195855;23;20009;-85
2021/07/18 11:22:00;;;;;;;14.63;10.63;;;18.80;99.90;;;;;;6013820;23;20031;-85
2021/07/18 11:25:10;;;;;;;15.25;10.35;;;18.80;99.90;;;;;;5993906;23;20037;-85
2021/07/18 11:28:48;;;;;;;;;;;;;;;;;;;;;
2021/07/18 11:36:36;;;;;;;20.98;11.40;;;19.10;99.90;;;;;;6137438;23;20483;-87
2021/07/18 11:39:23;;;;;;;14.30;10.85;;;19.10;99.90;;;;;;6136444;23;20025;-87
2021/07/18 11:41:57;;;;;;;14.65;10.52;;;19.20;99.90;;;;;;6234255;22;20011;-84
2021/07/18 11:44:29;;;;;;;14.95;11.18;;;19.40;99.90;;;;;;6218112;22;20023;-84
2021/07/18 11:47:15;;;;;;;18.90;12.52;;;19.60;99.90;;;;;;6219057;22;20023;-85
2021/07/18 11:49:51;;;;;;;12.45;9.43;;;19.60;99.90;;;;;;6221164;22;20015;-83
2021/07/18 11:52:22;;;;;;;12.63;9.27;;;19.60;99.90;;;;;;6220315;22;20682;-86
2021/07/18 11:54:50;;;;;;;17.25;10.63;;;19.50;99.90;;;;;;6252373;22;20031;-84
2021/07/18 11:57:21;;;;;;;15.98;10.43;;;19.40;99.90;;;;;;6244533;22;20541;-84
2021/07/18 11:59:50;;;;;;;17.65;9.10;;;19.40;99.90;;;;;;6217431;22;20026;-83
2021/07/18 12:06:06;;;;;;;13.88;9.65;;;19.40;99.90;;;;;;6153953;23;20025;-83
2021/07/18 12:08:34;;;;;;;14.57;10.35;;;19.50;99.90;;;;;;6188879;23;20017;-85
2021/07/18 12:11:12;;;;;;;16.05;12.52;;;19.60;99.90;;;;;;6145553;23;20036;-85
2021/07/18 12:13:49;;;;;;;14.75;10.00;;;19.70;99.90;;;;;;6165514;23;20440;-86
2021/07/18 12:16:17;;;;;;;17.77;12.50;;;20.00;99.90;;;;;;6236901;22;20038;-86
2021/07/18 12:18:56;;;;;;;15.80;9.38;;;20.20;99.90;;;;;;6315155;22;20022;-86
2021/07/18 12:21:26;;;;;;;15.80;11.25;;;20.10;99.90;;;;;;6282819;22;20421;-84
2021/07/18 12:24:38;;;;;;;19.98;10.75;;;20.20;99.90;;;;;;6310208;22;20030;-85
2021/07/18 12:27:09;;;;;;;12.60;10.63;;;20.30;99.90;;;;;;6302420;22;20333;-85
2021/07/18 12:29:53;;;;;;;13.70;10.88;;;20.50;99.90;;;;;;6292479;22;20010;-85
2021/07/18 12:32:33;;;;;;;15.25;11.15;;;20.60;99.90;;;;;;6281702;22;20025;-84
2021/07/18 12:35:17;;;;;;;30.88;13.40;;;20.80;99.90;;;;;;6295138;22;20022;-85
2021/07/18 12:37:47;;;;;;;17.42;11.27;;;20.90;99.90;;;;;;6257098;22;20042;-85
2021/07/18 12:40:21;;;;;;;21.88;13.75;;;20.70;99.90;;;;;;6293629;22;20382;-87
2021/07/18 12:42:58;;;;;;;12.35;9.45;;;20.40;99.90;;;;;;6307485;22;20027;-87
2021/07/18 12:45:47;;;;;;;16.15;11.27;;;20.10;99.90;;;;;;6318383;22;20011;-86
2021/07/18 12:48:26;;;;;;;17.70;9.95;;;19.90;99.90;;;;;;6309861;22;20018;-85
2021/07/18 12:50:54;;;;;;;17.80;11.13;;;19.80;99.90;;;;;;6313070;22;20023;-85
2021/07/18 12:53:22;;;;;;;26.00;11.95;;;19.90;99.90;;;;;;6293480;22;20015;-84
2021/07/18 12:55:53;;;;;;;19.02;12.02;;;20.00;99.90;;;;;;6284943;22;20050;-85
2021/07/18 12:58:29;;;;;;;17.67;11.38;;;20.10;99.90;;;;;;6344081;22;20019;-84
2021/07/18 13:01:12;;;;;;;15.77;10.07;;;20.20;99.90;;;;;;6345421;22;20034;-83
2021/07/18 13:03:49;;;;;;;17.10;9.35;;;20.20;99.90;;;;;;6281409;22;20026;-86
2021/07/18 13:06:24;;;;;;;18.42;12.55;;;20.30;99.90;;;;;;6266835;22;20333;-84
2021/07/18 13:08:56;;;;;;;15.20;10.88;;;20.30;99.90;;;;;;6282982;22;20333;-83
2021/07/18 13:11:38;;;;;;;12.57;9.70;;;20.40;99.90;;;;;;6306630;22;20023;-85
2021/07/18 13:14:32;;;;;;;17.13;11.07;;;20.50;99.90;;;;;;6280029;22;20018;-83
2021/07/18 13:17:15;;;;;;;14.75;11.75;;;20.50;99.90;;;;;;6295627;22;20319;-83
2021/07/18 13:20:05;;;;;;;15.88;9.40;;;20.60;99.90;;;;;;6281576;22;20015;-84
2021/07/18 13:22:36;;;;;;;20.58;11.25;;;20.70;99.90;;;;;;6256427;22;20437;-84
2021/07/18 13:25:27;;;;;;;19.58;11.05;;;20.80;99.90;;;;;;6282085;22;20023;-84
2021/07/18 13:28:01;;;;;;;15.02;10.43;;;20.70;99.90;;;;;;6284946;22;20015;-84
2021/07/18 13:30:36;;;;;;;14.60;10.10;;;20.60;99.90;;;;;;6279394;22;20011;-84
2021/07/18 13:33:07;;;;;;;14.38;9.70;;;20.70;99.90;;;;;;6281820;22;20011;-83
2021/07/18 13:35:42;;;;;;;13.98;10.27;;;20.70;99.90;;;;;;6339064;22;20018;-84